Main page
Satellite images 10-day forecastsClimateMarine weather Cyclones Lightning AirportsFAQ Newsletter About
Weather : Europe Africa North America South America Asia Australia-Oceania Others
Languages Contact

Frankfurt, Germany

Frankfurt Airport

latitude: 50-03N, longitude: 008-36E, elevation: 111 m


METAR: EDDF 190850Z 09009KT 040V210 CAVOK 11/M04 Q1021 NOSIG
TAF: EDDF 190500Z 1906/2012 05005KT CAVOK

Time: 11:24 (09:24 UTC)

Current weather observation

The report was made 34 minutes ago, at 08:50 UTC
Wind 9 kt from the East, varying between Northeast and South/Southwest
Temperature 11°C
Humidity 35%
Pressure 1021 hPa
Visibility 10 km or more
no clouds below 1500 m and no cumulonimbus

Change units

Forecast

The report was made 4 hours and 24 minutes ago, at 05:00 UTC
Forecast valid from 19 at 06 UTC to 20 at 12 UTC
Wind 5 kt from the Northeast
Visibility 10 km or more
no clouds below 1500 m and no cumulonimbus
The information on this site is subject to a disclaimer
Weather : Europe Africa North America South America Asia Australia-Oceania Others
Satellite images 10-day forecastsClimateMarine weather Cyclones Lightning AirportsFAQ Languages Contact Newsletter About